createdAt,value
2022-10-22T00:01:14.802Z,101350.94
2022-10-22T00:06:16.767Z,101359.88
2022-10-22T00:11:19.787Z,101401.66
2022-10-22T00:16:21.378Z,101423.06
2022-10-22T00:21:23.071Z,101450.53
2022-10-22T00:26:24.601Z,101480.03
2022-10-22T00:31:26.114Z,101481.19
2022-10-22T00:36:27.792Z,101489.09
2022-10-22T00:41:29.274Z,101487.38
2022-10-22T00:46:31.044Z,101482.13
2022-10-22T00:51:35.628Z,101495.03
2022-10-22T00:56:38.097Z,101491.69
2022-10-22T01:01:39.575Z,101490.91
2022-10-22T01:06:41.451Z,101475.50
2022-10-22T01:12:08.091Z,101484.22
2022-10-22T01:17:24.087Z,101483.25
2022-10-22T01:22:34.336Z,101488.94
2022-10-22T01:27:54.662Z,101494.13
2022-10-22T01:33:01.610Z,101489.88
2022-10-22T01:38:06.787Z,101501.13
2022-10-22T01:43:10.408Z,101494.09
2022-10-22T01:48:28.842Z,101500.97
2022-10-22T01:53:40.803Z,101495.41
2022-10-22T01:59:06.993Z,101497.06
2022-10-22T02:04:21.396Z,101492.19
2022-10-22T02:09:26.025Z,101492.41
2022-10-22T02:14:30.625Z,101497.75
2022-10-22T02:19:56.306Z,101495.03
2022-10-22T02:24:57.883Z,101504.56
2022-10-22T02:30:06.873Z,101505.72
2022-10-22T02:35:13.279Z,101501.34
2022-10-22T02:40:15.564Z,101499.66
2022-10-22T02:45:19.379Z,101501.19
2022-10-22T02:50:21.027Z,101507.13
2022-10-22T02:55:22.851Z,101502.53
2022-10-22T03:00:24.374Z,101511.31
2022-10-22T03:05:25.889Z,101515.50
2022-10-22T03:10:27.395Z,101518.06
2022-10-22T03:15:28.910Z,101522.75
2022-10-22T03:20:30.378Z,101523.44
2022-10-22T03:25:34.538Z,101531.31
2022-10-22T03:30:36.190Z,101535.44
2022-10-22T03:35:44.713Z,101537.72
2022-10-22T03:40:46.551Z,101552.53
2022-10-22T03:45:48.019Z,101565.81
2022-10-22T03:50:49.588Z,101571.63
2022-10-22T03:55:51.190Z,101572.81
2022-10-22T04:00:52.883Z,101580.91
2022-10-22T04:05:54.529Z,101587.16
2022-10-22T04:10:56.007Z,101591.84
2022-10-22T04:16:07.736Z,101596.69
2022-10-22T04:21:11.930Z,101599.28
2022-10-22T04:26:13.739Z,101601.00
2022-10-22T04:31:18.685Z,101604.06
2022-10-22T04:36:20.644Z,101596.28
2022-10-22T04:41:28.125Z,101591.44
2022-10-22T04:46:32.338Z,101597.34
2022-10-22T04:51:33.868Z,101605.94
2022-10-22T04:56:35.431Z,101597.81
2022-10-22T05:01:42.730Z,101603.75
2022-10-22T05:06:45.437Z,101602.16
2022-10-22T05:11:49.980Z,101591.09
2022-10-22T05:16:52.068Z,101584.75
2022-10-22T05:21:55.193Z,101592.22
2022-10-22T05:26:58.733Z,101583.06
2022-10-22T05:32:00.410Z,101590.28
2022-10-22T05:37:02.405Z,101590.28
2022-10-22T05:42:04.028Z,101587.66
2022-10-22T05:47:05.604Z,101587.59
2022-10-22T05:52:07.160Z,101586.47
2022-10-22T05:57:08.704Z,101593.63
2022-10-22T06:02:10.495Z,101592.22
2022-10-22T06:07:15.760Z,101588.84
2022-10-22T06:12:17.323Z,101588.81
2022-10-22T06:17:19.906Z,101589.44
2022-10-22T06:22:21.401Z,101600.78
2022-10-22T06:27:23.069Z,101602.63
2022-10-22T06:32:24.582Z,101604.13
2022-10-22T06:37:26.182Z,101597.84
2022-10-22T06:42:28.546Z,101616.16
2022-10-22T06:47:31.654Z,101614.75
2022-10-22T06:52:35.971Z,101622.03
2022-10-22T06:57:38.443Z,101634.72
2022-10-22T07:02:40.482Z,101631.19
2022-10-22T07:07:42.243Z,101612.81
2022-10-22T07:12:43.916Z,101607.34
2022-10-22T07:17:45.712Z,101576.78
2022-10-22T07:22:47.234Z,101551.06
2022-10-22T07:27:48.710Z,101541.97
2022-10-22T07:32:50.208Z,101528.47
2022-10-22T07:37:51.754Z,101511.81
2022-10-22T07:42:53.266Z,101462.84
2022-10-22T07:47:54.818Z,101427.97
2022-10-22T07:52:58.223Z,101407.44
2022-10-22T07:58:00.271Z,101374.91
2022-10-22T08:03:01.785Z,101346.06
2022-10-22T08:08:03.304Z,101396.25
2022-10-22T08:13:05.456Z,101422.28
2022-10-22T08:18:06.964Z,101428.59
2022-10-22T08:23:08.817Z,101435.28
2022-10-22T08:28:10.356Z,101445.59
2022-10-22T08:33:11.868Z,101445.50
2022-10-22T08:38:13.375Z,101452.44
2022-10-22T08:44:01.454Z,101449.34
2022-10-22T08:54:58.314Z,101453.75
2022-10-22T09:00:26.297Z,101455.16
2022-10-22T09:05:39.740Z,101438.03
2022-10-22T09:10:49.772Z,101410.38
2022-10-22T09:15:58.993Z,101380.09
2022-10-22T09:21:19.246Z,101333.94
2022-10-22T09:26:23.829Z,101338.75
2022-10-22T09:31:30.153Z,101368.97
2022-10-22T09:36:32.013Z,101404.56
2022-10-22T09:41:33.506Z,101382.03
2022-10-22T09:46:39.848Z,101402.94
2022-10-22T09:51:54.453Z,101401.75
2022-10-22T09:57:16.628Z,101428.75
2022-10-22T10:02:43.691Z,101472.34
2022-10-22T10:07:47.394Z,101522.53
2022-10-22T10:13:00.681Z,101535.53
2022-10-22T10:18:28.259Z,101511.19
2022-10-22T10:23:29.664Z,101519.84
2022-10-22T10:29:03.391Z,101562.56
2022-10-22T10:34:38.979Z,101607.34
2022-10-22T10:40:19.773Z,101645.13
2022-10-22T10:45:55.586Z,101672.41
2022-10-22T10:51:18.666Z,101694.16
2022-10-22T10:56:35.579Z,101714.63
2022-10-22T11:02:02.021Z,101721.28
2022-10-22T11:07:11.361Z,101735.59
2022-10-22T11:12:48.875Z,101738.88
2022-10-22T11:17:53.060Z,101727.53
2022-10-22T11:23:18.814Z,101731.41
2022-10-22T11:28:33.776Z,101729.38
2022-10-22T11:33:48.455Z,101692.09
2022-10-22T11:38:51.094Z,101653.94
2022-10-22T11:44:05.669Z,101588.78
2022-10-22T11:49:13.121Z,101538.03
2022-10-22T11:54:37.325Z,101512.25
2022-10-22T11:59:44.902Z,101476.44
2022-10-22T12:04:47.341Z,101450.63
2022-10-22T12:14:58.037Z,101405.69
2022-10-22T12:20:07.758Z,101409.00
2022-10-22T12:25:17.775Z,101424.34
2022-10-22T12:30:23.625Z,101408.13
2022-10-22T12:35:29.899Z,101362.44
2022-10-22T12:40:35.219Z,101364.91
2022-10-22T12:45:37.794Z,101374.34
2022-10-22T12:50:50.295Z,101363.22
2022-10-22T12:55:56.747Z,101381.00
2022-10-22T13:01:02.239Z,101376.75
2022-10-22T13:06:19.103Z,101393.00
2022-10-22T13:11:20.719Z,101405.91
2022-10-22T13:16:25.782Z,101417.00
2022-10-22T13:21:38.072Z,101436.06
2022-10-22T13:26:39.571Z,101442.16
2022-10-22T13:31:46.934Z,101450.63
2022-10-22T13:36:49.267Z,101457.41
2022-10-22T13:41:51.619Z,101496.34
2022-10-22T13:46:53.187Z,101502.41
2022-10-22T13:51:54.782Z,101485.34
2022-10-22T13:56:56.612Z,101489.59
2022-10-22T14:01:58.210Z,101491.31
2022-10-22T14:07:03.658Z,101507.75
2022-10-22T14:12:14.424Z,101545.09
2022-10-22T14:17:17.308Z,101558.94
2022-10-22T14:22:20.011Z,101551.97
2022-10-22T14:27:21.496Z,101578.94
2022-10-22T14:32:23.113Z,101591.72
2022-10-22T14:37:24.899Z,101595.09
2022-10-22T14:42:26.830Z,101591.88
2022-10-22T14:47:28.573Z,101530.03
2022-10-22T14:52:30.169Z,101477.19
2022-10-22T14:57:31.905Z,101445.88
2022-10-22T15:02:33.631Z,101443.28
2022-10-22T15:07:35.812Z,101468.16
2022-10-22T15:12:37.372Z,101481.03
2022-10-22T15:17:39.066Z,101454.94
2022-10-22T15:22:41.191Z,101441.13
2022-10-22T15:27:44.686Z,101446.28
2022-10-22T15:32:48.005Z,101449.72
2022-10-22T15:37:52.441Z,101485.66
2022-10-22T15:42:53.934Z,101506.09
2022-10-22T15:47:55.446Z,101520.63
2022-10-22T15:52:57.335Z,101561.03
2022-10-22T15:58:01.804Z,101603.59
2022-10-22T16:08:33.474Z,101633.28
2022-10-22T16:13:37.014Z,101640.81
2022-10-22T16:18:38.526Z,101657.78
2022-10-22T16:23:42.612Z,101682.28
2022-10-22T16:28:45.433Z,101690.75
2022-10-22T16:33:49.984Z,101711.38
2022-10-22T16:38:51.936Z,101713.53
2022-10-22T16:43:55.127Z,101713.59
2022-10-22T16:49:02.604Z,101716.69
2022-10-22T16:54:08.208Z,101736.53
2022-10-22T16:59:15.963Z,101721.81
2022-10-22T17:04:17.539Z,101723.22
2022-10-22T17:09:19.268Z,101750.78
2022-10-22T17:14:21.128Z,101762.34
2022-10-22T17:20:25.814Z,101763.16
2022-10-22T17:25:42.875Z,101786.06
2022-10-22T17:30:44.512Z,101792.56
2022-10-22T17:35:46.079Z,101797.84
2022-10-22T17:40:47.610Z,101800.19
2022-10-22T17:45:49.207Z,101812.03
2022-10-22T17:50:51.412Z,101816.94
2022-10-22T17:56:02.231Z,101824.66
2022-10-22T18:01:04.417Z,101847.78
2022-10-22T18:06:07.590Z,101856.03
2022-10-22T18:11:11.082Z,101873.69
2022-10-22T18:16:12.533Z,101891.09
2022-10-22T18:21:15.665Z,101875.59
2022-10-22T18:26:20.224Z,101885.63
2022-10-22T18:31:26.162Z,101906.81
2022-10-22T18:36:28.147Z,101911.31
2022-10-22T18:41:31.786Z,101907.09
2022-10-22T18:46:35.008Z,101894.19
2022-10-22T18:51:36.557Z,101907.09
2022-10-22T18:56:39.959Z,101943.03
2022-10-22T19:01:41.508Z,101943.03
2022-10-22T19:06:45.588Z,101946.94
2022-10-22T19:11:49.793Z,101953.69
2022-10-22T19:16:51.319Z,101947.09
2022-10-22T19:21:53.354Z,101940.94
2022-10-22T19:26:54.933Z,101944.75
2022-10-22T19:31:56.472Z,101944.88
2022-10-22T19:36:58.354Z,101947.50
2022-10-22T19:42:01.582Z,101948.25
2022-10-22T19:47:04.478Z,101957.19
2022-10-22T19:52:06.093Z,101944.38
2022-10-22T19:57:08.392Z,101946.78
2022-10-22T20:02:18.398Z,101931.41
2022-10-22T20:07:19.822Z,101953.69
2022-10-22T20:12:21.367Z,101951.81
2022-10-22T20:17:22.893Z,101954.06
2022-10-22T20:22:49.280Z,101956.91
2022-10-22T20:27:50.784Z,101957.81
2022-10-22T20:32:52.321Z,101975.34
2022-10-22T20:37:53.803Z,101993.53
2022-10-22T20:42:55.309Z,101987.63
2022-10-22T20:48:02.611Z,101983.63
2022-10-22T20:53:04.663Z,101983.06
2022-10-22T20:58:06.173Z,101980.50
2022-10-22T21:03:07.670Z,101984.84
2022-10-22T21:08:10.397Z,101989.19
2022-10-22T21:13:12.951Z,102006.22
2022-10-22T21:18:14.775Z,102018.31
2022-10-22T21:23:16.497Z,102025.38
2022-10-22T21:28:18.021Z,102028.63
2022-10-22T21:33:19.942Z,102029.53
2022-10-22T21:38:22.974Z,102039.38
2022-10-22T21:43:24.555Z,102049.34
2022-10-22T21:48:26.076Z,102060.66
2022-10-22T21:53:27.648Z,102051.06
2022-10-22T21:58:29.982Z,102033.41
2022-10-22T22:03:31.749Z,102020.63
2022-10-22T22:08:34.232Z,102010.50
2022-10-22T22:13:36.294Z,102002.47
2022-10-22T22:18:39.497Z,101999.13
2022-10-22T22:23:43.988Z,102014.47
2022-10-22T22:28:45.707Z,101998.59
2022-10-22T22:33:47.474Z,101996.13
2022-10-22T22:38:48.955Z,101986.75
2022-10-22T22:43:50.568Z,101969.41
2022-10-22T22:48:52.751Z,101957.91
2022-10-22T22:53:54.670Z,101950.56
2022-10-22T22:58:57.596Z,101957.19
2022-10-22T23:04:05.316Z,101955.50
2022-10-22T23:09:10.359Z,101955.78
2022-10-22T23:14:16.961Z,101939.25
2022-10-22T23:19:21.488Z,101939.94
2022-10-22T23:24:26.091Z,101925.28
2022-10-22T23:29:33.020Z,101902.88
2022-10-22T23:34:41.150Z,101889.44
2022-10-22T23:39:42.614Z,101880.63
2022-10-22T23:44:44.070Z,101876.22
2022-10-22T23:49:45.556Z,101863.78
2022-10-22T23:54:48.654Z,101897.22
2022-10-22T23:59:50.232Z,101921.75
